createdAt,value
2019-01-11T00:00:27.288Z,1.93
2019-01-11T00:02:53.564Z,2.10
2019-01-11T00:05:19.831Z,1.67
2019-01-11T00:07:46.201Z,2.17
2019-01-11T00:10:12.571Z,2.00
2019-01-11T00:12:38.865Z,1.70
2019-01-11T00:15:05.741Z,2.07
2019-01-11T00:17:32.257Z,1.97
2019-01-11T00:20:03.482Z,2.27
2019-01-11T00:22:26.579Z,2.20
2019-01-11T00:24:52.863Z,1.90
2019-01-11T00:27:19.321Z,1.80
2019-01-11T00:29:45.617Z,2.10
2019-01-11T00:32:11.884Z,1.80
2019-01-11T00:34:38.164Z,1.67
2019-01-11T00:37:04.731Z,2.40
2019-01-11T00:39:30.984Z,1.90
2019-01-11T00:41:57.353Z,2.20
2019-01-11T00:44:23.623Z,2.03
2019-01-11T00:46:50.222Z,2.27
2019-01-11T00:49:16.482Z,2.00
2019-01-11T00:51:42.892Z,2.00
2019-01-11T00:54:09.409Z,2.57
2019-01-11T00:56:35.804Z,2.10
2019-01-11T00:59:02.657Z,2.30
2019-01-11T01:01:28.929Z,2.10
2019-01-11T01:03:55.204Z,2.20
2019-01-11T01:06:21.469Z,2.13
2019-01-11T01:08:47.972Z,2.50
2019-01-11T01:11:14.459Z,2.67
2019-01-11T01:13:40.833Z,2.80
2019-01-11T01:16:07.308Z,2.70
2019-01-11T01:18:33.772Z,2.27
2019-01-11T01:21:00.228Z,2.13
2019-01-11T01:23:26.630Z,2.23
2019-01-11T01:25:53.079Z,2.43
2019-01-11T01:28:19.784Z,2.37
2019-01-11T01:30:46.157Z,2.20
2019-01-11T01:33:12.708Z,2.07
2019-01-11T01:35:39.012Z,2.33
2019-01-11T01:38:05.808Z,2.20
2019-01-11T01:40:32.292Z,2.20
2019-01-11T01:42:58.563Z,2.40
2019-01-11T01:45:25.032Z,2.40
2019-01-11T01:47:51.408Z,2.50
2019-01-11T01:50:17.877Z,2.70
2019-01-11T01:52:44.245Z,2.27
2019-01-11T01:55:12.831Z,2.20
2019-01-11T01:57:39.281Z,2.10
2019-01-11T02:00:18.437Z,2.30
2019-01-11T02:02:45.340Z,2.40
2019-01-11T02:05:12.392Z,2.60
2019-01-11T02:07:38.784Z,2.27
2019-01-11T02:10:08.476Z,2.77
2019-01-11T02:12:34.823Z,2.77
2019-01-11T02:15:01.299Z,2.60
2019-01-11T02:17:27.573Z,2.23
2019-01-11T02:19:53.886Z,2.60
2019-01-11T02:22:20.233Z,2.93
2019-01-11T02:24:46.529Z,2.27
2019-01-11T02:27:12.901Z,2.30
2019-01-11T02:29:39.164Z,2.60
2019-01-11T02:32:05.652Z,2.60
2019-01-11T02:34:31.914Z,2.40
2019-01-11T02:36:58.184Z,3.23
2019-01-11T02:39:24.491Z,2.50
2019-01-11T02:41:50.725Z,2.90
2019-01-11T02:44:16.997Z,2.47
2019-01-11T02:46:43.486Z,2.90
2019-01-11T02:49:09.842Z,2.50
2019-01-11T02:51:36.124Z,2.53
2019-01-11T02:54:02.473Z,3.07
2019-01-11T02:56:28.772Z,3.13
2019-01-11T02:58:55.037Z,3.10
2019-01-11T03:01:21.308Z,3.30
2019-01-11T03:03:47.584Z,3.40
2019-01-11T03:06:13.827Z,3.13
2019-01-11T03:08:40.205Z,3.27
2019-01-11T03:11:06.864Z,2.90
2019-01-11T03:13:33.125Z,3.30
2019-01-11T03:15:59.416Z,3.27
2019-01-11T03:18:25.698Z,3.00
2019-01-11T03:20:51.998Z,3.30
2019-01-11T03:23:18.501Z,3.37
2019-01-11T03:25:44.846Z,2.80
2019-01-11T03:28:11.125Z,2.77
2019-01-11T03:30:37.393Z,3.63
2019-01-11T03:33:03.664Z,3.10
2019-01-11T03:35:30.050Z,3.13
2019-01-11T03:37:56.435Z,3.57
2019-01-11T03:40:23.091Z,3.33
2019-01-11T03:42:49.852Z,3.77
2019-01-11T03:45:18.821Z,3.63
2019-01-11T03:47:45.273Z,3.80
2019-01-11T03:50:14.276Z,4.00
2019-01-11T03:52:40.521Z,3.33
2019-01-11T03:55:09.900Z,3.77
2019-01-11T03:57:36.288Z,3.93
2019-01-11T04:00:08.862Z,3.70
2019-01-11T04:02:35.253Z,3.90
2019-01-11T04:05:01.701Z,3.70
2019-01-11T04:07:28.373Z,4.10
2019-01-11T04:09:54.640Z,3.87
2019-01-11T04:12:20.913Z,3.80
2019-01-11T04:14:47.184Z,3.93
2019-01-11T04:17:13.468Z,4.40
2019-01-11T04:19:39.732Z,4.20
2019-01-11T04:22:07.994Z,4.40
2019-01-11T04:24:36.512Z,5.33
2019-01-11T04:27:02.876Z,5.20
2019-01-11T04:29:29.137Z,5.50
2019-01-11T04:31:55.515Z,6.03
2019-01-11T04:34:21.785Z,5.60
2019-01-11T04:36:48.037Z,5.97
2019-01-11T04:39:14.597Z,6.33
2019-01-11T04:41:40.877Z,7.27
2019-01-11T04:44:07.153Z,7.00
2019-01-11T04:46:33.448Z,7.07
2019-01-11T04:48:59.696Z,6.80
2019-01-11T04:51:25.968Z,7.83
2019-01-11T04:53:52.239Z,8.27
2019-01-11T04:56:18.609Z,7.67
2019-01-11T04:58:44.882Z,7.50
2019-01-11T05:01:11.145Z,7.03
2019-01-11T05:03:37.444Z,8.50
2019-01-11T05:06:03.714Z,9.33
2019-01-11T05:08:29.957Z,8.40
2019-01-11T05:10:56.248Z,9.70
2019-01-11T05:13:27.224Z,9.67
2019-01-11T05:15:53.694Z,8.70
2019-01-11T05:18:19.961Z,10.43
2019-01-11T05:20:46.340Z,10.30
2019-01-11T05:23:12.607Z,9.33
2019-01-11T05:25:39.173Z,8.63
2019-01-11T05:28:05.439Z,9.23
2019-01-11T05:30:32.038Z,11.88
2019-01-11T05:32:58.301Z,9.53
2019-01-11T05:35:24.557Z,8.30
2019-01-11T05:37:50.844Z,9.53
2019-01-11T05:40:17.299Z,10.13
2019-01-11T05:42:43.596Z,10.13
2019-01-11T05:45:10.264Z,9.43
2019-01-11T05:47:36.509Z,11.10
2019-01-11T05:50:06.305Z,10.60
2019-01-11T05:52:32.565Z,11.03
2019-01-11T05:54:58.845Z,11.07
2019-01-11T05:57:25.121Z,11.83
2019-01-11T05:59:52.169Z,11.90
2019-01-11T06:02:18.464Z,11.63
2019-01-11T06:04:45.547Z,11.40
2019-01-11T06:07:16.749Z,11.10
2019-01-11T06:09:43.056Z,11.10
2019-01-11T06:12:09.324Z,11.20
2019-01-11T06:14:35.576Z,11.87
2019-01-11T06:17:01.947Z,11.50
2019-01-11T06:19:28.318Z,11.13
2019-01-11T06:21:54.692Z,10.87
2019-01-11T06:24:21.333Z,10.67
2019-01-11T06:26:47.577Z,10.33
2019-01-11T06:29:13.863Z,10.07
2019-01-11T06:31:40.129Z,10.17
2019-01-11T06:34:06.390Z,10.23
2019-01-11T06:36:32.693Z,10.47
2019-01-11T06:38:58.941Z,9.90
2019-01-11T06:41:27.120Z,10.37
2019-01-11T06:43:53.412Z,10.27
2019-01-11T06:46:21.568Z,10.53
2019-01-11T06:48:47.944Z,10.03
2019-01-11T06:51:14.533Z,10.00
2019-01-11T06:53:40.889Z,9.57
2019-01-11T06:56:07.387Z,10.23
2019-01-11T06:58:33.634Z,10.57
2019-01-11T07:01:00.275Z,10.77
2019-01-11T07:03:26.565Z,11.60
2019-01-11T07:05:52.850Z,10.00
2019-01-11T07:08:19.235Z,10.07
2019-01-11T07:10:45.589Z,9.23
2019-01-11T07:13:11.865Z,9.93
2019-01-11T07:15:38.145Z,9.97
2019-01-11T07:18:04.413Z,10.67
2019-01-11T07:20:30.681Z,10.53
2019-01-11T07:22:56.953Z,10.83
2019-01-11T07:25:23.421Z,10.77
2019-01-11T07:27:54.311Z,10.80
2019-01-11T07:30:21.780Z,11.00
2019-01-11T07:32:48.029Z,10.40
2019-01-11T07:35:14.324Z,11.20
2019-01-11T07:37:40.577Z,10.03
2019-01-11T07:40:09.744Z,12.07
2019-01-11T07:42:36.012Z,11.60
2019-01-11T07:45:05.365Z,11.07
2019-01-11T07:47:31.653Z,11.70
2019-01-11T07:49:58.338Z,11.77
2019-01-11T07:52:24.809Z,11.13
2019-01-11T07:54:51.080Z,12.10
2019-01-11T07:57:17.329Z,13.60
2019-01-11T07:59:43.972Z,13.10
2019-01-11T08:02:10.608Z,12.63
2019-01-11T08:04:36.873Z,12.30
2019-01-11T08:07:03.365Z,13.17
2019-01-11T08:09:29.729Z,12.43
2019-01-11T08:11:56.281Z,13.20
2019-01-11T08:14:22.572Z,11.90
2019-01-11T08:16:50.141Z,13.17
2019-01-11T08:19:16.831Z,11.73
2019-01-11T08:21:43.113Z,12.13
2019-01-11T08:24:09.361Z,13.03
2019-01-11T08:26:36.159Z,12.23
2019-01-11T08:29:03.193Z,13.23
2019-01-11T08:31:34.725Z,12.67
2019-01-11T08:33:57.665Z,12.57
2019-01-11T08:36:24.014Z,13.17
2019-01-11T08:38:50.284Z,14.50
2019-01-11T08:41:16.904Z,12.93
2019-01-11T08:43:43.149Z,14.83
2019-01-11T08:46:09.435Z,12.57
2019-01-11T08:48:35.701Z,12.77
2019-01-11T08:51:03.018Z,12.73
2019-01-11T08:53:29.328Z,13.20
2019-01-11T08:55:55.569Z,14.40
2019-01-11T08:58:21.859Z,12.57
2019-01-11T09:00:48.135Z,13.27
2019-01-11T09:03:14.396Z,15.23
2019-01-11T09:05:40.672Z,66.50
2019-01-11T09:08:06.919Z,24.47
2019-01-11T09:10:33.393Z,19.70
2019-01-11T09:12:59.664Z,19.77
2019-01-11T09:15:26.033Z,20.67
2019-01-11T09:17:57.348Z,17.30
2019-01-11T09:20:23.628Z,14.77
2019-01-11T09:22:49.873Z,14.13
2019-01-11T09:25:16.160Z,22.30
2019-01-11T09:27:42.408Z,20.27
2019-01-11T09:30:10.045Z,13.27
2019-01-11T09:32:36.433Z,14.83
2019-01-11T09:35:03.484Z,15.97
2019-01-11T09:37:29.772Z,14.63
2019-01-11T09:39:56.036Z,21.00
2019-01-11T09:42:22.301Z,14.87
2019-01-11T09:44:48.572Z,15.30
2019-01-11T09:47:15.144Z,12.47
2019-01-11T09:49:41.710Z,13.20
2019-01-11T09:52:08.011Z,12.60
2019-01-11T09:54:34.361Z,12.63
2019-01-11T09:57:00.652Z,12.17
2019-01-11T09:59:26.936Z,15.07
2019-01-11T10:01:55.085Z,13.10
2019-01-11T10:04:23.276Z,14.43
2019-01-11T10:06:51.527Z,12.87
2019-01-11T10:09:18.084Z,11.90
2019-01-11T10:11:44.385Z,12.13
2019-01-11T10:14:10.628Z,12.93
2019-01-11T10:16:36.900Z,12.50
2019-01-11T10:19:03.185Z,13.10
2019-01-11T10:21:29.537Z,12.73
2019-01-11T10:23:55.828Z,13.13
2019-01-11T10:26:22.089Z,13.20
2019-01-11T10:28:48.541Z,14.00
2019-01-11T10:31:14.815Z,13.00
2019-01-11T10:33:41.081Z,13.57
2019-01-11T10:36:07.459Z,12.20
2019-01-11T10:38:33.848Z,13.10
2019-01-11T10:41:00.093Z,11.33
2019-01-11T10:43:26.382Z,12.67
2019-01-11T10:45:52.630Z,13.50
2019-01-11T10:48:19.261Z,12.23
2019-01-11T10:50:45.552Z,13.57
2019-01-11T10:53:12.128Z,20.90
2019-01-11T10:55:38.420Z,12.60
2019-01-11T10:58:04.913Z,12.53
2019-01-11T11:00:31.260Z,13.03
2019-01-11T11:02:57.631Z,10.77
2019-01-11T11:05:24.213Z,12.53
2019-01-11T11:07:50.866Z,12.15
2019-01-11T11:10:17.635Z,11.00
2019-01-11T11:12:44.003Z,11.60
2019-01-11T11:15:12.776Z,10.93
2019-01-11T11:17:39.161Z,10.77
2019-01-11T11:20:09.092Z,11.03
2019-01-11T11:22:35.484Z,9.73
2019-01-11T11:25:04.337Z,10.33
2019-01-11T11:27:30.705Z,10.93
2019-01-11T11:29:56.976Z,11.33
2019-01-11T11:32:25.141Z,10.80
2019-01-11T11:34:51.457Z,10.50
2019-01-11T11:37:18.332Z,12.95
2019-01-11T11:39:45.078Z,10.53
2019-01-11T11:42:11.372Z,10.43
2019-01-11T11:44:37.613Z,10.10
2019-01-11T11:47:03.989Z,10.40
2019-01-11T11:49:30.279Z,9.17
2019-01-11T11:51:56.549Z,8.50
2019-01-11T11:54:22.952Z,9.87
2019-01-11T11:56:49.220Z,8.47
2019-01-11T11:59:15.470Z,8.37
2019-01-11T12:01:41.860Z,9.00
2019-01-11T12:04:08.313Z,9.53
2019-01-11T12:06:34.581Z,8.87
2019-01-11T12:09:00.853Z,8.40
2019-01-11T12:11:27.125Z,9.87
2019-01-11T12:13:53.399Z,22.40
2019-01-11T12:16:19.668Z,10.80
2019-01-11T12:18:45.939Z,10.53
2019-01-11T12:21:12.413Z,51.40
2019-01-11T12:23:38.689Z,67.47
2019-01-11T12:26:05.365Z,19.43
2019-01-11T12:28:31.652Z,10.93
2019-01-11T12:30:57.901Z,10.07
2019-01-11T12:33:24.191Z,10.60
2019-01-11T12:35:50.455Z,10.13
2019-01-11T12:38:16.725Z,8.73
2019-01-11T12:40:43.359Z,10.10
2019-01-11T12:43:09.609Z,8.60
2019-01-11T12:45:35.889Z,8.80
2019-01-11T12:48:02.161Z,9.87
2019-01-11T12:50:28.611Z,9.90
2019-01-11T12:52:55.004Z,8.30
2019-01-11T12:55:21.412Z,8.83
2019-01-11T12:57:47.761Z,9.20
2019-01-11T13:00:16.547Z,8.00
2019-01-11T13:02:43.036Z,8.90
2019-01-11T13:05:11.692Z,8.73
2019-01-11T13:07:37.997Z,9.77
2019-01-11T13:10:07.444Z,8.90
2019-01-11T13:12:33.816Z,9.63
2019-01-11T13:15:00.099Z,9.33
2019-01-11T13:17:26.343Z,12.43
2019-01-11T13:19:52.936Z,8.90
2019-01-11T13:22:19.188Z,8.17
2019-01-11T13:24:45.721Z,9.67
2019-01-11T13:27:11.992Z,9.10
2019-01-11T13:29:38.256Z,9.00
2019-01-11T13:32:04.758Z,8.73
2019-01-11T13:34:31.088Z,8.03
2019-01-11T13:36:57.359Z,8.37
2019-01-11T13:39:23.628Z,9.43
2019-01-11T13:41:49.877Z,9.23
2019-01-11T13:44:16.253Z,7.63
2019-01-11T13:46:42.872Z,8.73
2019-01-11T13:49:09.137Z,8.30
2019-01-11T13:51:35.432Z,8.83
2019-01-11T13:54:01.701Z,8.10
2019-01-11T13:56:28.081Z,8.23
2019-01-11T13:58:54.358Z,8.53
2019-01-11T14:01:20.601Z,8.47
2019-01-11T14:03:46.877Z,7.83
2019-01-11T14:06:13.616Z,9.03
2019-01-11T14:08:40.097Z,9.13
2019-01-11T14:11:06.367Z,8.83
2019-01-11T14:13:32.741Z,8.73
2019-01-11T14:15:59.111Z,9.20
2019-01-11T14:18:25.780Z,8.63
2019-01-11T14:20:52.052Z,9.40
2019-01-11T14:23:19.023Z,8.97
2019-01-11T14:25:45.359Z,9.03
2019-01-11T14:28:11.609Z,8.67
2019-01-11T14:30:38.086Z,9.13
2019-01-11T14:33:04.469Z,8.90
2019-01-11T14:35:30.733Z,11.40
2019-01-11T14:37:57.011Z,8.37
2019-01-11T14:40:23.381Z,8.67
2019-01-11T14:42:49.633Z,8.90
2019-01-11T14:45:16.544Z,8.83
2019-01-11T14:47:42.913Z,8.67
2019-01-11T14:50:12.390Z,7.87
2019-01-11T14:52:38.845Z,8.00
2019-01-11T14:55:05.488Z,8.37
2019-01-11T14:57:32.065Z,7.50
2019-01-11T14:59:58.335Z,7.77
2019-01-11T15:02:24.623Z,7.97
2019-01-11T15:04:50.869Z,7.60
2019-01-11T15:07:17.160Z,8.67
2019-01-11T15:09:43.402Z,8.80
2019-01-11T15:12:09.689Z,7.80
2019-01-11T15:14:35.983Z,8.53
2019-01-11T15:17:02.815Z,8.43
2019-01-11T15:19:29.103Z,7.87
2019-01-11T15:21:55.460Z,8.00
2019-01-11T15:24:22.006Z,7.97
2019-01-11T15:26:48.608Z,7.73
2019-01-11T15:29:14.877Z,8.07
2019-01-11T15:31:41.233Z,8.50
2019-01-11T15:34:07.616Z,8.60
2019-01-11T15:36:33.906Z,7.83
2019-01-11T15:39:00.196Z,10.00
2019-01-11T15:41:26.840Z,8.43
2019-01-11T15:43:53.101Z,9.47
2019-01-11T15:46:19.808Z,8.67
2019-01-11T15:48:47.073Z,9.73
2019-01-11T15:51:15.638Z,10.50
2019-01-11T15:53:41.936Z,8.27
2019-01-11T15:56:08.776Z,10.77
2019-01-11T15:58:35.048Z,8.87
2019-01-11T16:01:01.432Z,10.63
2019-01-11T16:03:27.680Z,9.70
2019-01-11T16:06:14.686Z,9.63
2019-01-11T16:09:03.729Z,9.37
2019-01-11T16:11:36.541Z,16.97
2019-01-11T16:14:29.337Z,8.83
2019-01-11T16:16:59.393Z,9.00
2019-01-11T16:19:25.669Z,7.83
2019-01-11T16:21:51.953Z,7.93
2019-01-11T16:24:18.197Z,8.97
2019-01-11T16:26:44.498Z,8.07
2019-01-11T16:29:10.742Z,9.70
2019-01-11T16:31:36.993Z,7.33
2019-01-11T16:34:03.385Z,8.10
2019-01-11T16:36:29.653Z,7.47
2019-01-11T16:38:55.960Z,7.17
2019-01-11T16:41:22.440Z,6.70
2019-01-11T16:43:48.817Z,7.50
2019-01-11T16:46:15.091Z,6.97
2019-01-11T16:48:41.334Z,7.43
2019-01-11T16:51:07.605Z,7.50
2019-01-11T16:53:33.995Z,6.47
2019-01-11T16:56:00.597Z,6.33
2019-01-11T16:58:27.252Z,5.97
2019-01-11T17:00:53.535Z,6.33
2019-01-11T17:03:20.098Z,6.87
2019-01-11T17:05:46.488Z,6.03
2019-01-11T17:08:12.843Z,6.27
2019-01-11T17:10:39.093Z,6.47
2019-01-11T17:13:05.404Z,6.13
2019-01-11T17:15:32.569Z,5.87
2019-01-11T17:17:58.951Z,6.70
2019-01-11T17:20:25.315Z,5.93
2019-01-11T17:22:53.185Z,6.60
2019-01-11T17:25:19.671Z,6.10
2019-01-11T17:27:45.921Z,6.20
2019-01-11T17:30:14.504Z,6.33
2019-01-11T17:32:41.361Z,6.57
2019-01-11T17:35:07.797Z,6.80
2019-01-11T17:37:34.376Z,7.00
2019-01-11T17:40:00.648Z,6.40
2019-01-11T17:42:27.012Z,7.23
2019-01-11T17:44:53.287Z,6.40
2019-01-11T17:47:19.537Z,6.60
2019-01-11T17:49:45.817Z,7.00
2019-01-11T17:52:12.084Z,7.67
2019-01-11T17:54:38.329Z,6.87
2019-01-11T17:57:04.726Z,7.53
2019-01-11T17:59:30.984Z,6.70
2019-01-11T18:01:57.261Z,7.07
2019-01-11T18:04:23.557Z,6.77
2019-01-11T18:06:49.845Z,7.27
2019-01-11T18:09:16.113Z,7.20
2019-01-11T18:11:42.401Z,7.17
2019-01-11T18:14:08.649Z,7.87
2019-01-11T18:16:34.936Z,7.77
2019-01-11T18:19:01.483Z,8.50
2019-01-11T18:21:27.741Z,9.20
2019-01-11T18:23:54.024Z,9.03
2019-01-11T18:26:20.257Z,7.87
2019-01-11T18:28:46.529Z,7.60
2019-01-11T18:31:12.920Z,8.50
2019-01-11T18:33:39.188Z,9.40
2019-01-11T18:36:05.559Z,8.87
2019-01-11T18:38:31.828Z,11.20
2019-01-11T18:40:58.101Z,8.57
2019-01-11T18:43:24.372Z,7.07
2019-01-11T18:45:50.646Z,8.33
2019-01-11T18:48:16.893Z,8.60
2019-01-11T18:50:43.170Z,8.37
2019-01-11T18:53:13.810Z,9.98
2019-01-11T18:55:37.620Z,7.87
2019-01-11T18:58:03.900Z,8.03
2019-01-11T19:00:30.161Z,7.90
2019-01-11T19:02:56.464Z,8.47
2019-01-11T19:05:23.112Z,8.30
2019-01-11T19:07:49.497Z,9.10
2019-01-11T19:10:17.980Z,8.20
2019-01-11T19:12:44.239Z,9.17
2019-01-11T19:15:13.435Z,9.47
2019-01-11T19:17:39.700Z,8.40
2019-01-11T19:20:09.685Z,9.30
2019-01-11T19:22:36.288Z,9.73
2019-01-11T19:25:05.837Z,10.90
2019-01-11T19:27:32.109Z,11.27
2019-01-11T19:29:58.428Z,13.80
2019-01-11T19:32:24.674Z,11.97
2019-01-11T19:34:50.948Z,11.93
2019-01-11T19:37:17.228Z,11.60
2019-01-11T19:39:43.473Z,12.17
2019-01-11T19:42:09.882Z,14.07
2019-01-11T19:44:36.225Z,11.03
2019-01-11T19:47:02.693Z,12.20
2019-01-11T19:49:29.408Z,12.80
2019-01-11T19:51:55.770Z,12.10
2019-01-11T19:54:22.063Z,12.97
2019-01-11T19:56:48.331Z,9.80
2019-01-11T19:59:14.604Z,13.50
2019-01-11T20:01:40.859Z,12.17
2019-01-11T20:04:07.258Z,13.17
2019-01-11T20:06:33.516Z,12.30
2019-01-11T20:09:00.193Z,13.50
2019-01-11T20:11:26.462Z,12.17
2019-01-11T20:13:52.720Z,11.27
2019-01-11T20:16:18.990Z,11.67
2019-01-11T20:18:45.469Z,11.33
2019-01-11T20:21:11.729Z,12.77
2019-01-11T20:23:38.192Z,10.97
2019-01-11T20:26:04.683Z,11.43
2019-01-11T20:28:30.930Z,13.47
2019-01-11T20:30:57.233Z,12.63
2019-01-11T20:33:23.477Z,12.03
2019-01-11T20:35:49.837Z,12.07
2019-01-11T20:38:16.280Z,12.37
2019-01-11T20:40:42.633Z,12.27
2019-01-11T20:43:09.276Z,13.33
2019-01-11T20:45:35.545Z,12.43
2019-01-11T20:48:01.807Z,13.97
2019-01-11T20:50:28.184Z,13.03
2019-01-11T20:52:54.638Z,12.40
2019-01-11T20:55:21.012Z,15.90
2019-01-11T20:57:47.604Z,12.90
2019-01-11T21:00:22.646Z,13.50
2019-01-11T21:02:49.230Z,13.37
2019-01-11T21:05:15.684Z,12.37
2019-01-11T21:07:42.056Z,16.93
2019-01-11T21:10:10.028Z,13.73
2019-01-11T21:12:36.293Z,13.47
2019-01-11T21:15:06.360Z,14.50
2019-01-11T21:17:32.658Z,11.93
2019-01-11T21:19:58.904Z,19.03
2019-01-11T21:22:25.280Z,15.27
2019-01-11T21:24:51.564Z,13.63
2019-01-11T21:27:17.813Z,13.13
2019-01-11T21:29:44.500Z,12.23
2019-01-11T21:32:10.739Z,12.57
2019-01-11T21:34:37.037Z,12.20
2019-01-11T21:37:03.412Z,11.47
2019-01-11T21:39:29.662Z,11.97
2019-01-11T21:41:55.956Z,12.57
2019-01-11T21:44:22.240Z,11.93
2019-01-11T21:46:48.486Z,13.03
2019-01-11T21:49:14.773Z,13.17
2019-01-11T21:51:41.021Z,12.93
2019-01-11T21:54:07.410Z,13.23
2019-01-11T21:56:33.706Z,12.10
2019-01-11T21:58:59.941Z,12.37
2019-01-11T22:01:26.232Z,12.37
2019-01-11T22:03:53.090Z,13.17
2019-01-11T22:06:19.449Z,13.70
2019-01-11T22:08:45.740Z,13.40
2019-01-11T22:11:12.117Z,12.90
2019-01-11T22:13:38.464Z,13.63
2019-01-11T22:16:04.763Z,13.80
2019-01-11T22:18:31.009Z,13.20
2019-01-11T22:20:57.296Z,14.17
2019-01-11T22:23:24.026Z,14.40
2019-01-11T22:25:50.326Z,12.97
2019-01-11T22:28:17.035Z,13.77
2019-01-11T22:30:43.461Z,15.23
2019-01-11T22:33:09.761Z,12.93
2019-01-11T22:35:36.052Z,12.87
2019-01-11T22:38:02.497Z,11.63
2019-01-11T22:40:28.795Z,11.93
2019-01-11T22:42:56.109Z,10.93
2019-01-11T22:45:22.421Z,10.43
2019-01-11T22:47:48.812Z,11.00
2019-01-11T22:50:15.360Z,10.97
2019-01-11T22:52:41.833Z,10.97
2019-01-11T22:55:10.108Z,10.63
2019-01-11T22:57:36.369Z,10.00
2019-01-11T23:00:12.452Z,9.60
2019-01-11T23:02:38.968Z,9.93
2019-01-11T23:05:07.313Z,9.47
2019-01-11T23:07:33.787Z,8.87
2019-01-11T23:10:00.139Z,9.20
2019-01-11T23:12:35.781Z,8.80
2019-01-11T23:15:05.179Z,9.03
2019-01-11T23:17:43.809Z,11.75
2019-01-11T23:20:12.076Z,9.47
2019-01-11T23:22:38.348Z,7.57
2019-01-11T23:25:05.018Z,7.17
2019-01-11T23:27:31.319Z,7.20
2019-01-11T23:29:57.561Z,7.70
2019-01-11T23:32:23.849Z,6.53
2019-01-11T23:34:50.124Z,6.77
2019-01-11T23:37:16.405Z,6.07
2019-01-11T23:39:42.675Z,6.73
2019-01-11T23:42:09.004Z,5.77
2019-01-11T23:44:35.273Z,5.20
2019-01-11T23:47:01.569Z,5.60
2019-01-11T23:49:27.814Z,6.00
2019-01-11T23:51:54.067Z,5.47
2019-01-11T23:54:24.496Z,4.97
2019-01-11T23:56:48.717Z,5.30
2019-01-11T23:59:15.004Z,5.10
